sensor_id;sensor_type;location;lat;lon;timestamp;P1;durP1;ratioP1;P2;durP2;ratioP2
40755;SDS011;26461;45.630;9.418;2023-11-19T00:02:27;14.13;;;10.23;;
40755;SDS011;26461;45.630;9.418;2023-11-19T00:05:38;12.25;;;8.90;;
40755;SDS011;26461;45.630;9.418;2023-11-19T00:08:44;13.48;;;9.05;;
40755;SDS011;26461;45.630;9.418;2023-11-19T00:11:49;14.27;;;8.75;;
40755;SDS011;26461;45.630;9.418;2023-11-19T00:14:54;10.48;;;9.10;;
40755;SDS011;26461;45.630;9.418;2023-11-19T00:17:59;15.15;;;9.35;;
40755;SDS011;26461;45.630;9.418;2023-11-19T00:21:07;8.82;;;8.20;;
40755;SDS011;26461;45.630;9.418;2023-11-19T00:24:19;9.73;;;7.18;;
40755;SDS011;26461;45.630;9.418;2023-11-19T00:27:25;11.20;;;7.35;;
40755;SDS011;26461;45.630;9.418;2023-11-19T00:30:35;11.10;;;6.97;;
40755;SDS011;26461;45.630;9.418;2023-11-19T00:33:40;16.30;;;9.10;;
40755;SDS011;26461;45.630;9.418;2023-11-19T00:36:45;9.52;;;7.32;;
40755;SDS011;26461;45.630;9.418;2023-11-19T00:39:55;15.00;;;7.90;;
40755;SDS011;26461;45.630;9.418;2023-11-19T00:43:03;12.43;;;6.93;;
40755;SDS011;26461;45.630;9.418;2023-11-19T00:46:13;10.68;;;6.72;;
40755;SDS011;26461;45.630;9.418;2023-11-19T00:49:23;8.50;;;6.93;;
40755;SDS011;26461;45.630;9.418;2023-11-19T00:52:29;9.15;;;6.03;;
40755;SDS011;26461;45.630;9.418;2023-11-19T00:55:40;12.45;;;7.72;;
40755;SDS011;26461;45.630;9.418;2023-11-19T00:58:45;10.15;;;7.47;;
40755;SDS011;26461;45.630;9.418;2023-11-19T01:01:50;7.03;;;5.38;;
40755;SDS011;26461;45.630;9.418;2023-11-19T01:04:55;10.98;;;6.72;;
40755;SDS011;26461;45.630;9.418;2023-11-19T01:08:01;8.45;;;6.07;;
40755;SDS011;26461;45.630;9.418;2023-11-19T01:11:09;9.45;;;6.43;;
40755;SDS011;26461;45.630;9.418;2023-11-19T01:14:25;9.00;;;6.00;;
40755;SDS011;26461;45.630;9.418;2023-11-19T01:17:30;9.30;;;6.78;;
40755;SDS011;26461;45.630;9.418;2023-11-19T01:20:39;8.18;;;6.38;;
40755;SDS011;26461;45.630;9.418;2023-11-19T01:23:44;8.40;;;5.97;;
40755;SDS011;26461;45.630;9.418;2023-11-19T01:26:55;6.95;;;5.57;;
40755;SDS011;26461;45.630;9.418;2023-11-19T01:30:08;8.60;;;6.10;;
40755;SDS011;26461;45.630;9.418;2023-11-19T01:33:17;8.88;;;6.25;;
40755;SDS011;26461;45.630;9.418;2023-11-19T01:36:23;7.90;;;6.10;;
40755;SDS011;26461;45.630;9.418;2023-11-19T01:39:33;7.20;;;5.70;;
40755;SDS011;26461;45.630;9.418;2023-11-19T01:42:38;11.60;;;7.40;;
40755;SDS011;26461;45.630;9.418;2023-11-19T01:45:49;7.47;;;6.63;;
40755;SDS011;26461;45.630;9.418;2023-11-19T01:49:00;10.57;;;6.80;;
40755;SDS011;26461;45.630;9.418;2023-11-19T01:52:07;11.07;;;6.78;;
40755;SDS011;26461;45.630;9.418;2023-11-19T01:55:12;9.57;;;6.28;;
40755;SDS011;26461;45.630;9.418;2023-11-19T01:58:18;10.82;;;7.03;;
40755;SDS011;26461;45.630;9.418;2023-11-19T02:01:24;7.65;;;6.82;;
40755;SDS011;26461;45.630;9.418;2023-11-19T02:04:34;8.77;;;6.18;;
40755;SDS011;26461;45.630;9.418;2023-11-19T02:07:39;8.57;;;5.88;;
40755;SDS011;26461;45.630;9.418;2023-11-19T02:10:45;8.20;;;5.95;;
40755;SDS011;26461;45.630;9.418;2023-11-19T02:13:50;9.60;;;6.10;;
40755;SDS011;26461;45.630;9.418;2023-11-19T02:16:55;7.85;;;5.93;;
40755;SDS011;26461;45.630;9.418;2023-11-19T02:20:06;8.60;;;6.93;;
40755;SDS011;26461;45.630;9.418;2023-11-19T02:23:16;10.07;;;5.88;;
40755;SDS011;26461;45.630;9.418;2023-11-19T02:29:51;8.13;;;5.68;;
40755;SDS011;26461;45.630;9.418;2023-11-19T02:32:58;9.25;;;6.65;;
40755;SDS011;26461;45.630;9.418;2023-11-19T02:36:08;8.82;;;7.13;;
40755;SDS011;26461;45.630;9.418;2023-11-19T02:39:14;9.85;;;6.60;;
40755;SDS011;26461;45.630;9.418;2023-11-19T02:42:24;10.13;;;6.25;;
40755;SDS011;26461;45.630;9.418;2023-11-19T02:45:34;8.15;;;6.45;;
40755;SDS011;26461;45.630;9.418;2023-11-19T02:48:41;7.15;;;6.18;;
40755;SDS011;26461;45.630;9.418;2023-11-19T02:51:47;5.93;;;5.63;;
40755;SDS011;26461;45.630;9.418;2023-11-19T02:54:58;6.85;;;5.53;;
40755;SDS011;26461;45.630;9.418;2023-11-19T02:58:09;10.30;;;5.70;;
40755;SDS011;26461;45.630;9.418;2023-11-19T03:01:24;8.55;;;4.65;;
40755;SDS011;26461;45.630;9.418;2023-11-19T03:04:36;10.80;;;6.38;;
40755;SDS011;26461;45.630;9.418;2023-11-19T03:07:48;7.55;;;5.85;;
40755;SDS011;26461;45.630;9.418;2023-11-19T03:10:53;11.07;;;5.88;;
40755;SDS011;26461;45.630;9.418;2023-11-19T03:14:03;8.88;;;6.55;;
40755;SDS011;26461;45.630;9.418;2023-11-19T03:17:09;6.93;;;5.45;;
40755;SDS011;26461;45.630;9.418;2023-11-19T03:20:15;7.15;;;5.10;;
40755;SDS011;26461;45.630;9.418;2023-11-19T03:23:21;5.80;;;4.80;;
40755;SDS011;26461;45.630;9.418;2023-11-19T03:26:27;9.32;;;5.15;;
40755;SDS011;26461;45.630;9.418;2023-11-19T03:29:38;7.90;;;5.70;;
40755;SDS011;26461;45.630;9.418;2023-11-19T03:32:43;7.22;;;5.72;;
40755;SDS011;26461;45.630;9.418;2023-11-19T03:35:53;8.45;;;5.35;;
40755;SDS011;26461;45.630;9.418;2023-11-19T03:39:00;7.45;;;5.20;;
40755;SDS011;26461;45.630;9.418;2023-11-19T03:42:06;6.47;;;4.70;;
40755;SDS011;26461;45.630;9.418;2023-11-19T03:45:16;8.73;;;5.18;;
40755;SDS011;26461;45.630;9.418;2023-11-19T03:48:21;7.65;;;5.38;;
40755;SDS011;26461;45.630;9.418;2023-11-19T03:51:27;9.07;;;6.43;;
40755;SDS011;26461;45.630;9.418;2023-11-19T03:54:37;7.50;;;5.43;;
40755;SDS011;26461;45.630;9.418;2023-11-19T03:57:42;6.20;;;5.68;;
40755;SDS011;26461;45.630;9.418;2023-11-19T04:00:48;9.00;;;5.50;;
40755;SDS011;26461;45.630;9.418;2023-11-19T04:03:53;9.15;;;5.75;;
40755;SDS011;26461;45.630;9.418;2023-11-19T04:07:00;7.68;;;5.00;;
40755;SDS011;26461;45.630;9.418;2023-11-19T04:10:08;8.00;;;5.72;;
40755;SDS011;26461;45.630;9.418;2023-11-19T04:13:18;8.57;;;5.65;;
40755;SDS011;26461;45.630;9.418;2023-11-19T04:16:27;8.38;;;5.07;;
40755;SDS011;26461;45.630;9.418;2023-11-19T04:19:35;6.93;;;4.97;;
40755;SDS011;26461;45.630;9.418;2023-11-19T04:22:40;8.30;;;4.97;;
40755;SDS011;26461;45.630;9.418;2023-11-19T04:25:51;6.35;;;4.05;;
40755;SDS011;26461;45.630;9.418;2023-11-19T04:29:01;7.75;;;4.70;;
40755;SDS011;26461;45.630;9.418;2023-11-19T04:32:07;6.47;;;5.15;;
40755;SDS011;26461;45.630;9.418;2023-11-19T04:35:12;7.63;;;4.30;;
40755;SDS011;26461;45.630;9.418;2023-11-19T04:38:22;5.57;;;3.80;;
40755;SDS011;26461;45.630;9.418;2023-11-19T04:41:28;7.00;;;4.55;;
40755;SDS011;26461;45.630;9.418;2023-11-19T04:44:38;7.68;;;3.75;;
40755;SDS011;26461;45.630;9.418;2023-11-19T04:47:44;6.75;;;4.85;;
40755;SDS011;26461;45.630;9.418;2023-11-19T04:50:49;7.55;;;4.38;;
40755;SDS011;26461;45.630;9.418;2023-11-19T04:53:57;5.68;;;4.82;;
40755;SDS011;26461;45.630;9.418;2023-11-19T04:57:02;5.95;;;4.18;;
40755;SDS011;26461;45.630;9.418;2023-11-19T05:00:08;4.18;;;2.95;;
40755;SDS011;26461;45.630;9.418;2023-11-19T05:03:21;5.28;;;3.42;;
40755;SDS011;26461;45.630;9.418;2023-11-19T05:06:35;6.20;;;4.35;;
40755;SDS011;26461;45.630;9.418;2023-11-19T05:09:45;5.25;;;4.38;;
40755;SDS011;26461;45.630;9.418;2023-11-19T05:12:50;6.00;;;3.78;;
40755;SDS011;26461;45.630;9.418;2023-11-19T05:15:56;6.18;;;4.43;;
40755;SDS011;26461;45.630;9.418;2023-11-19T05:19:06;7.70;;;4.45;;
40755;SDS011;26461;45.630;9.418;2023-11-19T05:22:16;6.18;;;4.32;;
40755;SDS011;26461;45.630;9.418;2023-11-19T05:25:22;6.47;;;4.28;;
40755;SDS011;26461;45.630;9.418;2023-11-19T05:28:27;5.80;;;3.70;;
40755;SDS011;26461;45.630;9.418;2023-11-19T05:31:32;6.47;;;3.92;;
40755;SDS011;26461;45.630;9.418;2023-11-19T05:34:42;6.88;;;3.80;;
40755;SDS011;26461;45.630;9.418;2023-11-19T05:37:52;7.38;;;5.13;;
40755;SDS011;26461;45.630;9.418;2023-11-19T05:40:57;7.38;;;5.68;;
40755;SDS011;26461;45.630;9.418;2023-11-19T05:44:02;6.32;;;5.25;;
40755;SDS011;26461;45.630;9.418;2023-11-19T05:47:08;8.45;;;4.95;;
40755;SDS011;26461;45.630;9.418;2023-11-19T05:50:14;9.98;;;4.43;;
40755;SDS011;26461;45.630;9.418;2023-11-19T05:53:24;7.38;;;5.15;;
40755;SDS011;26461;45.630;9.418;2023-11-19T05:56:29;6.68;;;4.03;;
40755;SDS011;26461;45.630;9.418;2023-11-19T05:59:41;5.68;;;4.43;;
40755;SDS011;26461;45.630;9.418;2023-11-19T06:02:53;6.07;;;4.70;;
40755;SDS011;26461;45.630;9.418;2023-11-19T06:06:04;6.28;;;3.72;;
40755;SDS011;26461;45.630;9.418;2023-11-19T06:09:10;5.50;;;4.13;;
40755;SDS011;26461;45.630;9.418;2023-11-19T06:12:15;6.30;;;4.35;;
40755;SDS011;26461;45.630;9.418;2023-11-19T06:15:20;9.82;;;4.57;;
40755;SDS011;26461;45.630;9.418;2023-11-19T06:18:25;6.00;;;4.53;;
40755;SDS011;26461;45.630;9.418;2023-11-19T06:21:31;7.50;;;4.80;;
40755;SDS011;26461;45.630;9.418;2023-11-19T06:24:41;6.60;;;3.72;;
40755;SDS011;26461;45.630;9.418;2023-11-19T06:27:47;5.72;;;3.95;;
40755;SDS011;26461;45.630;9.418;2023-11-19T06:30:57;5.22;;;3.95;;
40755;SDS011;26461;45.630;9.418;2023-11-19T06:34:07;7.30;;;4.07;;
40755;SDS011;26461;45.630;9.418;2023-11-19T06:37:18;7.97;;;4.63;;
40755;SDS011;26461;45.630;9.418;2023-11-19T06:40:24;5.70;;;3.95;;
40755;SDS011;26461;45.630;9.418;2023-11-19T06:43:32;5.63;;;3.30;;
40755;SDS011;26461;45.630;9.418;2023-11-19T06:46:38;9.35;;;6.80;;
40755;SDS011;26461;45.630;9.418;2023-11-19T06:49:44;21.98;;;13.73;;
40755;SDS011;26461;45.630;9.418;2023-11-19T06:52:49;15.15;;;11.75;;
40755;SDS011;26461;45.630;9.418;2023-11-19T06:55:59;18.80;;;14.48;;
40755;SDS011;26461;45.630;9.418;2023-11-19T06:59:05;13.95;;;10.48;;
40755;SDS011;26461;45.630;9.418;2023-11-19T07:02:15;10.90;;;7.05;;
40755;SDS011;26461;45.630;9.418;2023-11-19T07:05:20;8.23;;;6.00;;
40755;SDS011;26461;45.630;9.418;2023-11-19T07:08:25;7.68;;;5.72;;
40755;SDS011;26461;45.630;9.418;2023-11-19T07:11:37;7.65;;;4.95;;
40755;SDS011;26461;45.630;9.418;2023-11-19T07:14:43;5.65;;;4.35;;
40755;SDS011;26461;45.630;9.418;2023-11-19T07:17:48;8.05;;;5.30;;
40755;SDS011;26461;45.630;9.418;2023-11-19T07:20:53;8.85;;;5.50;;
40755;SDS011;26461;45.630;9.418;2023-11-19T07:24:03;5.38;;;4.25;;
40755;SDS011;26461;45.630;9.418;2023-11-19T07:27:09;6.40;;;4.63;;
40755;SDS011;26461;45.630;9.418;2023-11-19T07:30:15;5.25;;;3.85;;
40755;SDS011;26461;45.630;9.418;2023-11-19T07:33:24;6.55;;;4.13;;
40755;SDS011;26461;45.630;9.418;2023-11-19T07:36:34;6.47;;;3.90;;
40755;SDS011;26461;45.630;9.418;2023-11-19T07:39:45;8.23;;;4.40;;
40755;SDS011;26461;45.630;9.418;2023-11-19T07:42:55;6.63;;;4.95;;
40755;SDS011;26461;45.630;9.418;2023-11-19T07:46:00;7.82;;;4.00;;
40755;SDS011;26461;45.630;9.418;2023-11-19T07:49:06;6.28;;;4.40;;
40755;SDS011;26461;45.630;9.418;2023-11-19T07:52:11;6.88;;;4.80;;
40755;SDS011;26461;45.630;9.418;2023-11-19T07:55:16;5.90;;;4.70;;
40755;SDS011;26461;45.630;9.418;2023-11-19T07:58:21;6.75;;;4.20;;
40755;SDS011;26461;45.630;9.418;2023-11-19T08:01:26;5.47;;;3.90;;
40755;SDS011;26461;45.630;9.418;2023-11-19T08:04:31;8.38;;;4.20;;
40755;SDS011;26461;45.630;9.418;2023-11-19T08:07:38;7.05;;;4.00;;
40755;SDS011;26461;45.630;9.418;2023-11-19T08:10:48;5.15;;;3.85;;
40755;SDS011;26461;45.630;9.418;2023-11-19T08:14:00;5.85;;;4.00;;
40755;SDS011;26461;45.630;9.418;2023-11-19T08:17:11;6.35;;;4.00;;
40755;SDS011;26461;45.630;9.418;2023-11-19T08:20:16;5.07;;;3.40;;
40755;SDS011;26461;45.630;9.418;2023-11-19T08:23:26;6.63;;;4.03;;
40755;SDS011;26461;45.630;9.418;2023-11-19T08:26:41;4.85;;;3.88;;
40755;SDS011;26461;45.630;9.418;2023-11-19T08:29:55;10.38;;;6.35;;
40755;SDS011;26461;45.630;9.418;2023-11-19T08:33:01;9.00;;;6.57;;
40755;SDS011;26461;45.630;9.418;2023-11-19T08:36:15;13.32;;;8.73;;
40755;SDS011;26461;45.630;9.418;2023-11-19T08:39:21;8.50;;;5.63;;
40755;SDS011;26461;45.630;9.418;2023-11-19T08:42:27;6.03;;;4.60;;
40755;SDS011;26461;45.630;9.418;2023-11-19T08:45:37;8.52;;;5.80;;
40755;SDS011;26461;45.630;9.418;2023-11-19T08:48:43;6.15;;;4.32;;
40755;SDS011;26461;45.630;9.418;2023-11-19T08:51:49;5.50;;;4.15;;
40755;SDS011;26461;45.630;9.418;2023-11-19T08:54:59;5.15;;;3.40;;
40755;SDS011;26461;45.630;9.418;2023-11-19T08:58:05;6.90;;;3.70;;
40755;SDS011;26461;45.630;9.418;2023-11-19T09:01:17;7.38;;;4.13;;
40755;SDS011;26461;45.630;9.418;2023-11-19T09:04:22;3.88;;;3.00;;
40755;SDS011;26461;45.630;9.418;2023-11-19T09:07:27;5.05;;;3.05;;
40755;SDS011;26461;45.630;9.418;2023-11-19T09:10:32;3.67;;;3.10;;
40755;SDS011;26461;45.630;9.418;2023-11-19T09:13:42;6.53;;;4.22;;
40755;SDS011;26461;45.630;9.418;2023-11-19T09:16:49;4.60;;;3.58;;
40755;SDS011;26461;45.630;9.418;2023-11-19T09:19:55;6.47;;;3.22;;
40755;SDS011;26461;45.630;9.418;2023-11-19T09:23:07;6.18;;;3.60;;
40755;SDS011;26461;45.630;9.418;2023-11-19T09:26:15;6.18;;;4.00;;
40755;SDS011;26461;45.630;9.418;2023-11-19T09:29:20;7.72;;;5.10;;
40755;SDS011;26461;45.630;9.418;2023-11-19T09:32:30;7.97;;;5.00;;
40755;SDS011;26461;45.630;9.418;2023-11-19T09:35:36;7.80;;;4.32;;
40755;SDS011;26461;45.630;9.418;2023-11-19T09:38:41;3.95;;;3.15;;
40755;SDS011;26461;45.630;9.418;2023-11-19T09:41:46;5.53;;;4.43;;
40755;SDS011;26461;45.630;9.418;2023-11-19T09:44:57;5.30;;;3.92;;
40755;SDS011;26461;45.630;9.418;2023-11-19T09:48:04;7.60;;;4.97;;
40755;SDS011;26461;45.630;9.418;2023-11-19T09:51:10;5.38;;;4.10;;
40755;SDS011;26461;45.630;9.418;2023-11-19T09:54:16;5.82;;;3.42;;
40755;SDS011;26461;45.630;9.418;2023-11-19T09:57:21;5.32;;;3.55;;
40755;SDS011;26461;45.630;9.418;2023-11-19T10:00:31;6.10;;;3.40;;
40755;SDS011;26461;45.630;9.418;2023-11-19T10:03:44;5.78;;;4.47;;
40755;SDS011;26461;45.630;9.418;2023-11-19T10:06:52;5.28;;;3.10;;
40755;SDS011;26461;45.630;9.418;2023-11-19T10:09:57;7.63;;;3.85;;
40755;SDS011;26461;45.630;9.418;2023-11-19T10:13:03;4.00;;;2.90;;
40755;SDS011;26461;45.630;9.418;2023-11-19T10:16:08;6.15;;;4.22;;
40755;SDS011;26461;45.630;9.418;2023-11-19T10:19:19;6.28;;;4.10;;
40755;SDS011;26461;45.630;9.418;2023-11-19T10:22:27;6.35;;;4.85;;
40755;SDS011;26461;45.630;9.418;2023-11-19T10:25:33;7.22;;;4.75;;
40755;SDS011;26461;45.630;9.418;2023-11-19T10:28:43;8.40;;;5.22;;
40755;SDS011;26461;45.630;9.418;2023-11-19T10:31:56;6.72;;;5.15;;
40755;SDS011;26461;45.630;9.418;2023-11-19T10:35:07;9.45;;;6.57;;
40755;SDS011;26461;45.630;9.418;2023-11-19T10:38:13;7.13;;;5.45;;
40755;SDS011;26461;45.630;9.418;2023-11-19T10:41:29;9.20;;;7.15;;
40755;SDS011;26461;45.630;9.418;2023-11-19T10:44:40;8.38;;;6.53;;
40755;SDS011;26461;45.630;9.418;2023-11-19T10:47:46;11.43;;;7.95;;
40755;SDS011;26461;45.630;9.418;2023-11-19T10:50:53;12.30;;;7.25;;
40755;SDS011;26461;45.630;9.418;2023-11-19T10:54:03;9.23;;;7.38;;
40755;SDS011;26461;45.630;9.418;2023-11-19T10:57:19;13.43;;;9.27;;
40755;SDS011;26461;45.630;9.418;2023-11-19T11:03:50;11.90;;;7.90;;
40755;SDS011;26461;45.630;9.418;2023-11-19T11:06:58;9.68;;;7.18;;
40755;SDS011;26461;45.630;9.418;2023-11-19T11:10:05;9.77;;;6.63;;
40755;SDS011;26461;45.630;9.418;2023-11-19T11:13:17;9.20;;;6.88;;
40755;SDS011;26461;45.630;9.418;2023-11-19T11:16:23;8.38;;;7.18;;
40755;SDS011;26461;45.630;9.418;2023-11-19T11:19:30;9.95;;;7.05;;
40755;SDS011;26461;45.630;9.418;2023-11-19T11:22:40;9.13;;;7.45;;
40755;SDS011;26461;45.630;9.418;2023-11-19T11:29:48;9.75;;;6.72;;
40755;SDS011;26461;45.630;9.418;2023-11-19T11:39:29;12.63;;;7.50;;
40755;SDS011;26461;45.630;9.418;2023-11-19T11:42:40;9.48;;;7.60;;
40755;SDS011;26461;45.630;9.418;2023-11-19T11:45:46;11.68;;;8.20;;
40755;SDS011;26461;45.630;9.418;2023-11-19T11:48:57;10.52;;;7.20;;
40755;SDS011;26461;45.630;9.418;2023-11-19T11:52:10;11.88;;;7.95;;
40755;SDS011;26461;45.630;9.418;2023-11-19T11:55:18;9.05;;;7.55;;
40755;SDS011;26461;45.630;9.418;2023-11-19T11:58:34;11.35;;;8.13;;
40755;SDS011;26461;45.630;9.418;2023-11-19T12:01:59;11.90;;;8.07;;
40755;SDS011;26461;45.630;9.418;2023-11-19T12:05:05;6.68;;;6.15;;
40755;SDS011;26461;45.630;9.418;2023-11-19T12:08:19;10.10;;;7.63;;
40755;SDS011;26461;45.630;9.418;2023-11-19T12:11:34;16.13;;;7.97;;
40755;SDS011;26461;45.630;9.418;2023-11-19T12:15:04;9.75;;;7.13;;
40755;SDS011;26461;45.630;9.418;2023-11-19T12:18:16;9.02;;;6.90;;
40755;SDS011;26461;45.630;9.418;2023-11-19T12:21:30;9.93;;;6.43;;
40755;SDS011;26461;45.630;9.418;2023-11-19T12:24:41;9.73;;;5.75;;
40755;SDS011;26461;45.630;9.418;2023-11-19T12:27:47;9.65;;;7.00;;
40755;SDS011;26461;45.630;9.418;2023-11-19T12:31:07;9.80;;;5.80;;
40755;SDS011;26461;45.630;9.418;2023-11-19T12:34:16;7.65;;;5.90;;
40755;SDS011;26461;45.630;9.418;2023-11-19T12:37:21;7.00;;;6.00;;
40755;SDS011;26461;45.630;9.418;2023-11-19T12:40:32;9.85;;;6.55;;
40755;SDS011;26461;45.630;9.418;2023-11-19T12:43:38;8.57;;;5.43;;
40755;SDS011;26461;45.630;9.418;2023-11-19T12:46:44;11.13;;;7.43;;
40755;SDS011;26461;45.630;9.418;2023-11-19T12:49:57;8.30;;;6.15;;
40755;SDS011;26461;45.630;9.418;2023-11-19T12:53:03;7.03;;;6.60;;
40755;SDS011;26461;45.630;9.418;2023-11-19T12:56:10;12.65;;;8.68;;
40755;SDS011;26461;45.630;9.418;2023-11-19T12:59:21;8.55;;;6.80;;
40755;SDS011;26461;45.630;9.418;2023-11-19T13:02:48;7.75;;;6.18;;
40755;SDS011;26461;45.630;9.418;2023-11-19T13:06:03;8.30;;;6.45;;
40755;SDS011;26461;45.630;9.418;2023-11-19T13:12:31;7.95;;;6.50;;
40755;SDS011;26461;45.630;9.418;2023-11-19T13:15:37;9.05;;;5.90;;
40755;SDS011;26461;45.630;9.418;2023-11-19T13:18:48;7.70;;;4.60;;
40755;SDS011;26461;45.630;9.418;2023-11-19T13:21:53;6.18;;;4.03;;
40755;SDS011;26461;45.630;9.418;2023-11-19T13:25:04;5.22;;;3.97;;
40755;SDS011;26461;45.630;9.418;2023-11-19T13:28:10;4.35;;;3.70;;
40755;SDS011;26461;45.630;9.418;2023-11-19T13:31:20;5.95;;;4.25;;
40755;SDS011;26461;45.630;9.418;2023-11-19T13:34:26;6.90;;;3.80;;
40755;SDS011;26461;45.630;9.418;2023-11-19T13:37:32;9.65;;;4.70;;
40755;SDS011;26461;45.630;9.418;2023-11-19T13:40:37;7.95;;;4.05;;
40755;SDS011;26461;45.630;9.418;2023-11-19T13:43:48;5.38;;;3.92;;
40755;SDS011;26461;45.630;9.418;2023-11-19T13:46:59;5.85;;;4.15;;
40755;SDS011;26461;45.630;9.418;2023-11-19T13:50:05;6.68;;;4.55;;
40755;SDS011;26461;45.630;9.418;2023-11-19T13:53:11;8.18;;;4.32;;
40755;SDS011;26461;45.630;9.418;2023-11-19T13:56:16;5.43;;;4.45;;
40755;SDS011;26461;45.630;9.418;2023-11-19T13:59:22;6.75;;;4.90;;
40755;SDS011;26461;45.630;9.418;2023-11-19T14:02:30;5.25;;;4.30;;
40755;SDS011;26461;45.630;9.418;2023-11-19T14:05:40;7.30;;;5.20;;
40755;SDS011;26461;45.630;9.418;2023-11-19T14:08:52;5.95;;;4.45;;
40755;SDS011;26461;45.630;9.418;2023-11-19T14:11:57;10.15;;;5.22;;
40755;SDS011;26461;45.630;9.418;2023-11-19T14:15:03;7.32;;;4.55;;
40755;SDS011;26461;45.630;9.418;2023-11-19T14:18:13;8.75;;;3.60;;
40755;SDS011;26461;45.630;9.418;2023-11-19T14:21:23;4.90;;;3.65;;
40755;SDS011;26461;45.630;9.418;2023-11-19T14:24:35;7.05;;;5.88;;
40755;SDS011;26461;45.630;9.418;2023-11-19T14:27:45;16.30;;;13.35;;
40755;SDS011;26461;45.630;9.418;2023-11-19T14:30:50;23.67;;;18.10;;
40755;SDS011;26461;45.630;9.418;2023-11-19T14:34:06;22.98;;;18.30;;
40755;SDS011;26461;45.630;9.418;2023-11-19T14:37:11;21.98;;;18.42;;
40755;SDS011;26461;45.630;9.418;2023-11-19T14:40:22;24.17;;;18.90;;
40755;SDS011;26461;45.630;9.418;2023-11-19T14:43:27;23.25;;;19.25;;
40755;SDS011;26461;45.630;9.418;2023-11-19T14:46:38;20.98;;;18.20;;
40755;SDS011;26461;45.630;9.418;2023-11-19T14:49:48;21.95;;;20.52;;
40755;SDS011;26461;45.630;9.418;2023-11-19T14:52:53;20.38;;;18.50;;
40755;SDS011;26461;45.630;9.418;2023-11-19T14:55:59;23.85;;;19.75;;
40755;SDS011;26461;45.630;9.418;2023-11-19T14:59:09;21.95;;;17.85;;
40755;SDS011;26461;45.630;9.418;2023-11-19T15:02:14;20.45;;;19.45;;
40755;SDS011;26461;45.630;9.418;2023-11-19T15:05:20;22.73;;;17.40;;
40755;SDS011;26461;45.630;9.418;2023-11-19T15:08:25;23.13;;;19.95;;
40755;SDS011;26461;45.630;9.418;2023-11-19T15:11:33;21.50;;;19.63;;
40755;SDS011;26461;45.630;9.418;2023-11-19T15:14:39;23.85;;;20.83;;
40755;SDS011;26461;45.630;9.418;2023-11-19T15:17:50;22.92;;;19.25;;
40755;SDS011;26461;45.630;9.418;2023-11-19T15:20:55;22.85;;;20.25;;
40755;SDS011;26461;45.630;9.418;2023-11-19T15:24:06;24.05;;;19.40;;
40755;SDS011;26461;45.630;9.418;2023-11-19T15:27:12;27.52;;;21.55;;
40755;SDS011;26461;45.630;9.418;2023-11-19T15:30:22;22.95;;;19.23;;
40755;SDS011;26461;45.630;9.418;2023-11-19T15:33:28;23.70;;;20.23;;
40755;SDS011;26461;45.630;9.418;2023-11-19T15:36:33;24.45;;;20.40;;
40755;SDS011;26461;45.630;9.418;2023-11-19T15:39:45;19.05;;;17.27;;
40755;SDS011;26461;45.630;9.418;2023-11-19T15:42:51;20.83;;;18.55;;
40755;SDS011;26461;45.630;9.418;2023-11-19T15:46:10;25.25;;;21.05;;
40755;SDS011;26461;45.630;9.418;2023-11-19T15:49:15;23.88;;;20.75;;
40755;SDS011;26461;45.630;9.418;2023-11-19T15:52:21;24.13;;;21.20;;
40755;SDS011;26461;45.630;9.418;2023-11-19T15:55:31;24.95;;;22.27;;
40755;SDS011;26461;45.630;9.418;2023-11-19T15:58:36;25.17;;;22.58;;
40755;SDS011;26461;45.630;9.418;2023-11-19T16:01:44;24.77;;;19.38;;
40755;SDS011;26461;45.630;9.418;2023-11-19T16:04:49;28.60;;;22.80;;
40755;SDS011;26461;45.630;9.418;2023-11-19T16:07:55;24.05;;;20.65;;
40755;SDS011;26461;45.630;9.418;2023-11-19T16:11:05;22.05;;;19.65;;
40755;SDS011;26461;45.630;9.418;2023-11-19T16:14:17;22.48;;;19.10;;
40755;SDS011;26461;45.630;9.418;2023-11-19T16:17:22;23.38;;;21.35;;
40755;SDS011;26461;45.630;9.418;2023-11-19T16:20:28;30.77;;;24.33;;
40755;SDS011;26461;45.630;9.418;2023-11-19T16:23:33;26.10;;;22.00;;
40755;SDS011;26461;45.630;9.418;2023-11-19T16:26:44;25.55;;;21.92;;
40755;SDS011;26461;45.630;9.418;2023-11-19T16:29:54;28.10;;;24.35;;
40755;SDS011;26461;45.630;9.418;2023-11-19T16:33:08;28.48;;;22.65;;
40755;SDS011;26461;45.630;9.418;2023-11-19T16:36:14;23.77;;;19.67;;
40755;SDS011;26461;45.630;9.418;2023-11-19T16:39:19;26.98;;;22.80;;
40755;SDS011;26461;45.630;9.418;2023-11-19T16:42:30;27.95;;;21.65;;
40755;SDS011;26461;45.630;9.418;2023-11-19T16:45:36;26.02;;;22.05;;
40755;SDS011;26461;45.630;9.418;2023-11-19T16:48:44;25.25;;;22.05;;
40755;SDS011;26461;45.630;9.418;2023-11-19T16:51:51;31.65;;;23.40;;
40755;SDS011;26461;45.630;9.418;2023-11-19T16:55:01;32.75;;;24.35;;
40755;SDS011;26461;45.630;9.418;2023-11-19T16:58:09;30.88;;;23.50;;
40755;SDS011;26461;45.630;9.418;2023-11-19T17:01:19;34.70;;;26.58;;
40755;SDS011;26461;45.630;9.418;2023-11-19T17:04:25;34.05;;;26.13;;
40755;SDS011;26461;45.630;9.418;2023-11-19T17:07:36;33.25;;;24.55;;
40755;SDS011;26461;45.630;9.418;2023-11-19T17:10:44;39.72;;;26.67;;
40755;SDS011;26461;45.630;9.418;2023-11-19T17:13:49;38.13;;;26.80;;
40755;SDS011;26461;45.630;9.418;2023-11-19T17:16:59;29.83;;;23.55;;
40755;SDS011;26461;45.630;9.418;2023-11-19T17:20:06;37.20;;;25.77;;
40755;SDS011;26461;45.630;9.418;2023-11-19T17:23:18;35.72;;;29.42;;
40755;SDS011;26461;45.630;9.418;2023-11-19T17:26:24;37.08;;;27.45;;
40755;SDS011;26461;45.630;9.418;2023-11-19T17:29:34;33.08;;;27.58;;
40755;SDS011;26461;45.630;9.418;2023-11-19T17:32:44;35.95;;;26.33;;
40755;SDS011;26461;45.630;9.418;2023-11-19T17:35:50;36.38;;;28.83;;
40755;SDS011;26461;45.630;9.418;2023-11-19T17:38:55;39.42;;;29.17;;
40755;SDS011;26461;45.630;9.418;2023-11-19T17:42:01;32.05;;;25.55;;
40755;SDS011;26461;45.630;9.418;2023-11-19T17:45:07;33.28;;;26.23;;
40755;SDS011;26461;45.630;9.418;2023-11-19T17:48:13;40.13;;;27.88;;
40755;SDS011;26461;45.630;9.418;2023-11-19T17:51:23;44.55;;;27.25;;
40755;SDS011;26461;45.630;9.418;2023-11-19T17:54:29;30.42;;;26.30;;
40755;SDS011;26461;45.630;9.418;2023-11-19T17:57:35;33.83;;;27.42;;
40755;SDS011;26461;45.630;9.418;2023-11-19T18:00:40;36.88;;;28.73;;
40755;SDS011;26461;45.630;9.418;2023-11-19T18:03:50;31.80;;;24.88;;
40755;SDS011;26461;45.630;9.418;2023-11-19T18:07:00;31.35;;;25.58;;
40755;SDS011;26461;45.630;9.418;2023-11-19T18:10:05;62.95;;;47.53;;
40755;SDS011;26461;45.630;9.418;2023-11-19T18:13:17;49.90;;;33.85;;
40755;SDS011;26461;45.630;9.418;2023-11-19T18:16:22;51.20;;;36.97;;
40755;SDS011;26461;45.630;9.418;2023-11-19T18:19:28;52.10;;;35.42;;
40755;SDS011;26461;45.630;9.418;2023-11-19T18:22:39;31.83;;;25.98;;
40755;SDS011;26461;45.630;9.418;2023-11-19T18:25:50;33.13;;;27.40;;
40755;SDS011;26461;45.630;9.418;2023-11-19T18:28:56;45.33;;;35.65;;
40755;SDS011;26461;45.630;9.418;2023-11-19T18:32:01;46.35;;;36.65;;
40755;SDS011;26461;45.630;9.418;2023-11-19T18:35:08;49.33;;;33.30;;
40755;SDS011;26461;45.630;9.418;2023-11-19T18:38:21;46.70;;;34.83;;
40755;SDS011;26461;45.630;9.418;2023-11-19T18:41:32;41.47;;;35.10;;
40755;SDS011;26461;45.630;9.418;2023-11-19T18:44:43;33.03;;;26.80;;
40755;SDS011;26461;45.630;9.418;2023-11-19T18:47:53;41.50;;;27.80;;
40755;SDS011;26461;45.630;9.418;2023-11-19T18:51:04;42.65;;;29.00;;
40755;SDS011;26461;45.630;9.418;2023-11-19T18:54:14;30.63;;;24.55;;
40755;SDS011;26461;45.630;9.418;2023-11-19T18:57:23;23.25;;;17.45;;
40755;SDS011;26461;45.630;9.418;2023-11-19T19:00:34;26.40;;;21.50;;
40755;SDS011;26461;45.630;9.418;2023-11-19T19:03:39;27.95;;;20.75;;